createdAt,value
2018-12-16T00:00:07.023Z,0.00
2018-12-16T00:01:07.035Z,0.00
2018-12-16T00:02:07.008Z,0.00
2018-12-16T00:03:07.007Z,0.00
2018-12-16T00:04:06.965Z,0.00
2018-12-16T00:05:06.956Z,0.00
2018-12-16T00:06:06.966Z,0.00
2018-12-16T00:07:07.127Z,0.00
2018-12-16T00:08:06.982Z,0.00
2018-12-16T00:09:06.910Z,0.00
2018-12-16T00:10:06.896Z,0.00
2018-12-16T00:11:06.883Z,0.00
2018-12-16T00:12:06.882Z,0.00
2018-12-16T00:13:06.896Z,0.00
2018-12-16T00:14:06.858Z,0.00
2018-12-16T00:15:06.847Z,0.00
2018-12-16T00:16:06.833Z,0.00
2018-12-16T00:17:06.837Z,0.00
2018-12-16T00:18:06.837Z,0.00
2018-12-16T00:19:06.805Z,0.00
2018-12-16T00:20:06.787Z,0.00
2018-12-16T00:21:06.782Z,0.00
2018-12-16T00:22:06.775Z,0.00
2018-12-16T00:23:06.781Z,0.00
2018-12-16T00:24:06.753Z,0.00
2018-12-16T00:25:06.750Z,0.00
2018-12-16T00:26:06.730Z,0.00
2018-12-16T00:27:06.719Z,0.00
2018-12-16T00:28:06.747Z,0.00
2018-12-16T00:29:06.709Z,0.00
2018-12-16T00:30:06.703Z,0.00
2018-12-16T00:31:06.683Z,0.00
2018-12-16T00:32:06.659Z,0.00
2018-12-16T00:33:06.680Z,0.00
2018-12-16T00:34:06.642Z,0.00
2018-12-16T00:35:06.638Z,0.00
2018-12-16T00:36:06.619Z,0.00
2018-12-16T00:37:06.606Z,0.00
2018-12-16T00:38:06.615Z,0.00
2018-12-16T00:39:06.648Z,0.00
2018-12-16T00:40:06.582Z,0.00
2018-12-16T00:41:06.579Z,0.00
2018-12-16T00:42:06.567Z,0.00
2018-12-16T00:43:06.567Z,0.00
2018-12-16T00:44:06.559Z,0.00
2018-12-16T00:45:06.536Z,0.00
2018-12-16T00:46:06.524Z,0.00
2018-12-16T00:47:06.515Z,0.00
2018-12-16T00:48:06.529Z,0.00
2018-12-16T00:49:06.488Z,0.00
2018-12-16T00:50:06.472Z,0.00
2018-12-16T00:51:06.467Z,0.00
2018-12-16T00:52:06.458Z,0.00
2018-12-16T00:53:06.507Z,0.00
2018-12-16T00:54:06.433Z,0.00
2018-12-16T00:55:06.420Z,0.00
2018-12-16T00:56:06.413Z,0.00
2018-12-16T00:57:06.414Z,0.00
2018-12-16T00:58:06.389Z,0.00
2018-12-16T00:59:06.400Z,0.00
2018-12-16T01:00:06.376Z,0.00
2018-12-16T01:01:06.352Z,0.00
2018-12-16T01:02:06.352Z,0.00
2018-12-16T01:03:06.358Z,0.00
2018-12-16T01:04:06.359Z,0.00
2018-12-16T01:05:06.321Z,0.00
2018-12-16T01:06:06.315Z,0.00
2018-12-16T01:07:06.312Z,0.00
2018-12-16T01:08:06.295Z,0.00
2018-12-16T01:09:06.301Z,0.00
2018-12-16T01:10:06.272Z,0.00
2018-12-16T01:11:06.253Z,0.00
2018-12-16T01:12:06.251Z,0.00
2018-12-16T01:13:06.236Z,0.00
2018-12-16T01:14:06.262Z,0.00
2018-12-16T01:15:06.219Z,0.00
2018-12-16T01:16:06.210Z,0.00
2018-12-16T01:17:06.189Z,0.00
2018-12-16T01:18:06.173Z,0.00
2018-12-16T01:19:06.213Z,0.00
2018-12-16T01:20:06.158Z,0.00
2018-12-16T01:21:06.145Z,0.00
2018-12-16T01:22:06.160Z,0.00
2018-12-16T01:23:06.127Z,0.00
2018-12-16T01:24:06.139Z,0.00
2018-12-16T01:25:06.123Z,0.00
2018-12-16T01:26:06.103Z,0.00
2018-12-16T01:27:06.095Z,0.00
2018-12-16T01:28:06.081Z,0.00
2018-12-16T01:29:06.151Z,0.00
2018-12-16T01:30:06.060Z,0.00
2018-12-16T01:31:06.056Z,0.00
2018-12-16T01:32:06.039Z,0.00
2018-12-16T01:33:06.044Z,0.00
2018-12-16T01:34:06.055Z,0.00
2018-12-16T01:35:06.009Z,0.00
2018-12-16T01:36:05.999Z,0.00
2018-12-16T01:37:06.016Z,0.00
2018-12-16T01:38:05.979Z,0.00
2018-12-16T01:39:05.991Z,0.00
2018-12-16T01:40:05.957Z,0.00
2018-12-16T01:41:05.946Z,0.00
2018-12-16T01:42:05.935Z,0.00
2018-12-16T01:43:05.919Z,0.00
2018-12-16T01:44:05.945Z,0.00
2018-12-16T01:45:05.909Z,0.00
2018-12-16T01:46:05.888Z,0.00
2018-12-16T01:47:05.883Z,0.00
2018-12-16T01:48:05.881Z,0.00
2018-12-16T01:49:05.886Z,0.00
2018-12-16T01:50:05.886Z,0.00
2018-12-16T01:51:05.850Z,0.00
2018-12-16T01:52:05.831Z,0.00
2018-12-16T01:53:05.821Z,0.00
2018-12-16T01:54:05.837Z,0.00
2018-12-16T01:55:05.841Z,0.00
2018-12-16T01:56:05.814Z,0.00
2018-12-16T01:57:05.785Z,0.00
2018-12-16T01:58:05.771Z,0.00
2018-12-16T01:59:05.769Z,0.00
2018-12-16T02:00:05.775Z,0.00
2018-12-16T02:01:05.731Z,0.00
2018-12-16T02:02:05.731Z,0.00
2018-12-16T02:03:05.725Z,0.00
2018-12-16T02:04:05.705Z,0.00
2018-12-16T02:05:05.725Z,0.00
2018-12-16T02:06:05.689Z,0.00
2018-12-16T02:07:05.675Z,0.00
2018-12-16T02:08:05.667Z,0.00
2018-12-16T02:09:05.746Z,0.00
2018-12-16T02:10:05.664Z,0.00
2018-12-16T02:11:05.643Z,0.00
2018-12-16T02:12:05.627Z,0.00
2018-12-16T02:13:05.607Z,0.00
2018-12-16T02:14:05.664Z,0.00
2018-12-16T02:15:05.621Z,0.00
2018-12-16T02:16:05.577Z,0.00
2018-12-16T02:17:05.563Z,0.00
2018-12-16T02:18:05.554Z,0.00
2018-12-16T02:19:05.555Z,0.00
2018-12-16T02:20:05.555Z,0.00
2018-12-16T02:21:05.520Z,0.00
2018-12-16T02:22:05.511Z,0.00
2018-12-16T02:23:05.499Z,0.00
2018-12-16T02:24:05.487Z,0.00
2018-12-16T02:25:05.495Z,0.00
2018-12-16T02:26:05.477Z,0.00
2018-12-16T02:27:05.466Z,0.00
2018-12-16T02:28:05.450Z,0.00
2018-12-16T02:29:05.439Z,0.00
2018-12-16T02:30:05.470Z,0.00
2018-12-16T02:31:05.435Z,0.00
2018-12-16T02:32:05.419Z,0.00
2018-12-16T02:33:05.406Z,0.00
2018-12-16T02:34:05.398Z,0.00
2018-12-16T02:35:05.380Z,0.00
2018-12-16T02:36:05.398Z,0.00
2018-12-16T02:37:05.360Z,0.00
2018-12-16T02:38:05.372Z,0.00
2018-12-16T02:39:05.352Z,0.00
2018-12-16T02:40:05.328Z,0.00
2018-12-16T02:41:05.335Z,0.00
2018-12-16T02:42:05.307Z,0.00
2018-12-16T02:43:05.300Z,0.00
2018-12-16T02:44:05.281Z,0.00
2018-12-16T02:45:05.309Z,0.00
2018-12-16T02:46:05.299Z,0.00
2018-12-16T02:47:05.258Z,0.00
2018-12-16T02:48:05.245Z,0.00
2018-12-16T02:49:05.263Z,0.00
2018-12-16T02:50:05.223Z,0.00
2018-12-16T02:51:05.229Z,0.00
2018-12-16T02:52:05.217Z,0.00
2018-12-16T02:53:05.206Z,0.00
2018-12-16T02:54:05.199Z,0.00
2018-12-16T02:55:05.183Z,0.00
2018-12-16T02:56:05.190Z,0.00
2018-12-16T02:57:05.163Z,0.00
2018-12-16T02:58:05.141Z,0.00
2018-12-16T02:59:05.151Z,0.00
2018-12-16T03:00:05.133Z,0.00
2018-12-16T03:01:05.115Z,0.00
2018-12-16T03:02:05.118Z,0.00
2018-12-16T03:03:05.080Z,0.00
2018-12-16T03:04:05.075Z,0.00
2018-12-16T03:05:05.057Z,0.00
2018-12-16T03:06:05.049Z,0.00
2018-12-16T03:07:05.064Z,0.00
2018-12-16T03:08:05.031Z,0.00
2018-12-16T03:09:05.149Z,0.00
2018-12-16T03:10:05.024Z,0.00
2018-12-16T03:11:05.007Z,0.00
2018-12-16T03:12:05.012Z,0.00
2018-12-16T03:13:04.976Z,0.00
2018-12-16T03:14:05.005Z,0.00
2018-12-16T03:15:04.973Z,0.00
2018-12-16T03:16:04.958Z,0.00
2018-12-16T03:17:04.935Z,0.00
2018-12-16T03:18:04.951Z,0.00
2018-12-16T03:19:04.916Z,0.00
2018-12-16T03:20:04.901Z,0.00
2018-12-16T03:21:04.900Z,0.00
2018-12-16T03:22:04.894Z,0.00
2018-12-16T03:23:11.916Z,0.00
2018-12-16T03:24:05.863Z,0.00
2018-12-16T03:25:04.885Z,0.00
2018-12-16T03:26:04.846Z,0.00
2018-12-16T03:27:04.844Z,0.00
2018-12-16T03:28:04.826Z,0.00
2018-12-16T03:29:04.833Z,0.00
2018-12-16T03:30:04.823Z,0.00
2018-12-16T03:31:04.802Z,0.00
2018-12-16T03:32:04.792Z,0.00
2018-12-16T03:33:04.775Z,0.00
2018-12-16T03:34:04.777Z,0.00
2018-12-16T03:35:04.750Z,0.00
2018-12-16T03:36:04.744Z,0.00
2018-12-16T03:37:04.734Z,0.00
2018-12-16T03:38:04.719Z,0.00
2018-12-16T03:39:04.741Z,0.00
2018-12-16T03:40:04.696Z,0.00
2018-12-16T03:41:04.708Z,0.00
2018-12-16T03:42:04.684Z,0.00
2018-12-16T03:43:04.664Z,0.00
2018-12-16T03:44:04.654Z,0.00
2018-12-16T03:45:04.649Z,0.00
2018-12-16T03:46:04.671Z,0.00
2018-12-16T03:47:04.630Z,0.00
2018-12-16T03:48:04.620Z,0.00
2018-12-16T03:49:04.619Z,0.00
2018-12-16T03:50:04.607Z,0.00
2018-12-16T03:51:04.590Z,0.00
2018-12-16T03:52:04.577Z,0.00
2018-12-16T03:53:04.575Z,0.00
2018-12-16T03:54:04.557Z,0.00
2018-12-16T03:55:04.561Z,0.00
2018-12-16T03:56:04.553Z,0.00
2018-12-16T03:57:04.526Z,0.00
2018-12-16T03:58:04.510Z,0.00
2018-12-16T03:59:04.514Z,0.00
2018-12-16T04:00:04.502Z,0.00
2018-12-16T04:01:04.498Z,0.00
2018-12-16T04:02:04.471Z,0.00
2018-12-16T04:03:04.466Z,0.00
2018-12-16T04:04:04.450Z,0.00
2018-12-16T04:05:04.444Z,0.00
2018-12-16T04:06:04.454Z,0.00
2018-12-16T04:07:04.412Z,0.00
2018-12-16T04:08:04.400Z,0.00
2018-12-16T04:09:04.396Z,0.00
2018-12-16T04:10:04.389Z,0.00
2018-12-16T04:11:04.399Z,0.00
2018-12-16T04:12:04.369Z,0.00
2018-12-16T04:13:04.369Z,0.00
2018-12-16T04:14:04.347Z,0.00
2018-12-16T04:15:04.337Z,0.00
2018-12-16T04:16:04.348Z,0.00
2018-12-16T04:17:04.322Z,0.00
2018-12-16T04:18:04.298Z,0.00
2018-12-16T04:19:04.296Z,0.00
2018-12-16T04:20:04.285Z,0.00
2018-12-16T04:21:04.296Z,0.00
2018-12-16T04:22:04.265Z,0.00
2018-12-16T04:23:04.268Z,0.00
2018-12-16T04:24:04.238Z,0.00
2018-12-16T04:25:04.223Z,0.00
2018-12-16T04:26:04.232Z,0.00
2018-12-16T04:27:04.202Z,0.00
2018-12-16T04:28:04.208Z,0.00
2018-12-16T04:29:04.186Z,0.00
2018-12-16T04:30:04.177Z,0.00
2018-12-16T04:31:04.202Z,0.00
2018-12-16T04:32:04.164Z,0.00
2018-12-16T04:33:04.150Z,0.00
2018-12-16T04:34:04.141Z,0.00
2018-12-16T04:35:04.129Z,0.00
2018-12-16T04:36:04.110Z,0.00
2018-12-16T04:37:04.124Z,0.00
2018-12-16T04:38:04.086Z,0.00
2018-12-16T04:39:04.074Z,0.00
2018-12-16T04:40:04.074Z,0.00
2018-12-16T04:41:04.049Z,0.00
2018-12-16T04:42:04.055Z,0.00
2018-12-16T04:43:04.038Z,0.00
2018-12-16T04:44:04.028Z,0.00
2018-12-16T04:45:04.016Z,0.00
2018-12-16T04:46:04.017Z,0.00
2018-12-16T04:47:04.161Z,0.00
2018-12-16T04:48:03.981Z,0.00
2018-12-16T04:49:03.974Z,0.00
2018-12-16T04:50:03.959Z,0.00
2018-12-16T04:51:03.951Z,0.00
2018-12-16T04:52:03.959Z,0.00
2018-12-16T04:53:03.928Z,0.00
2018-12-16T04:54:03.918Z,0.00
2018-12-16T04:55:03.911Z,0.00
2018-12-16T04:56:03.901Z,0.00
2018-12-16T04:57:03.930Z,0.00
2018-12-16T04:58:03.874Z,0.00
2018-12-16T04:59:03.866Z,0.00
2018-12-16T05:00:03.854Z,0.00
2018-12-16T05:01:03.853Z,0.00
2018-12-16T05:02:03.870Z,0.00
2018-12-16T05:03:03.830Z,0.00
2018-12-16T05:04:03.814Z,0.00
2018-12-16T05:05:03.822Z,0.00
2018-12-16T05:06:03.788Z,0.00
2018-12-16T05:07:03.791Z,0.00
2018-12-16T05:08:03.788Z,0.00
2018-12-16T05:09:03.789Z,0.00
2018-12-16T05:10:03.749Z,0.00
2018-12-16T05:11:03.744Z,0.00
2018-12-16T05:12:03.736Z,0.00
2018-12-16T05:13:03.741Z,0.00
2018-12-16T05:14:03.710Z,0.00
2018-12-16T05:15:03.705Z,0.00
2018-12-16T05:16:03.684Z,0.00
2018-12-16T05:17:03.685Z,0.00
2018-12-16T05:18:03.699Z,0.00
2018-12-16T05:19:03.659Z,0.00
2018-12-16T05:20:03.649Z,0.00
2018-12-16T05:21:03.634Z,0.00
2018-12-16T05:22:03.623Z,0.00
2018-12-16T05:23:03.636Z,0.00
2018-12-16T05:24:03.604Z,0.00
2018-12-16T05:25:03.593Z,0.00
2018-12-16T05:26:03.586Z,0.00
2018-12-16T05:27:03.600Z,0.00
2018-12-16T05:28:03.562Z,0.00
2018-12-16T05:29:03.586Z,0.00
2018-12-16T05:30:03.544Z,0.00
2018-12-16T05:31:03.533Z,0.00
2018-12-16T05:32:03.526Z,0.00
2018-12-16T05:33:03.515Z,0.00
2018-12-16T05:34:03.517Z,0.00
2018-12-16T05:35:03.506Z,0.00
2018-12-16T05:36:03.481Z,0.00
2018-12-16T05:37:03.471Z,0.00
2018-12-16T05:38:03.463Z,0.00
2018-12-16T05:39:03.468Z,0.00
2018-12-16T05:40:03.458Z,0.00
2018-12-16T05:41:03.427Z,0.00
2018-12-16T05:42:03.427Z,0.00
2018-12-16T05:43:03.432Z,0.00
2018-12-16T05:44:03.422Z,0.00
2018-12-16T05:45:03.400Z,0.00
2018-12-16T05:46:03.384Z,0.00
2018-12-16T05:47:03.361Z,0.00
2018-12-16T05:48:03.352Z,0.00
2018-12-16T05:49:03.344Z,0.00
2018-12-16T05:50:03.390Z,0.00
2018-12-16T05:51:03.322Z,0.00
2018-12-16T05:52:03.312Z,0.00
2018-12-16T05:53:03.296Z,0.00
2018-12-16T05:54:03.290Z,0.00
2018-12-16T05:55:03.299Z,0.00
2018-12-16T05:56:03.280Z,0.00
2018-12-16T05:57:03.264Z,0.00
2018-12-16T05:58:03.252Z,0.00
2018-12-16T05:59:03.336Z,0.00
2018-12-16T06:00:03.340Z,0.00
2018-12-16T06:01:03.216Z,0.00
2018-12-16T06:02:03.202Z,0.00
2018-12-16T06:03:03.236Z,0.00
2018-12-16T06:04:03.188Z,0.00
2018-12-16T06:05:03.174Z,0.00
2018-12-16T06:06:03.181Z,0.00
2018-12-16T06:07:03.160Z,0.00
2018-12-16T06:08:03.161Z,0.00
2018-12-16T06:09:03.133Z,0.00
2018-12-16T06:10:03.130Z,0.00
2018-12-16T06:11:03.134Z,0.00
2018-12-16T06:12:03.104Z,0.00
2018-12-16T06:13:03.115Z,0.00
2018-12-16T06:14:03.084Z,0.00
2018-12-16T06:15:03.071Z,0.00
2018-12-16T06:16:03.079Z,0.00
2018-12-16T06:17:03.061Z,0.00
2018-12-16T06:18:03.060Z,0.00
2018-12-16T06:19:03.054Z,0.00
2018-12-16T06:20:03.016Z,0.00
2018-12-16T06:21:03.008Z,0.00
2018-12-16T06:22:03.032Z,0.00
2018-12-16T06:23:02.987Z,0.00
2018-12-16T06:24:02.979Z,0.00
2018-12-16T06:25:02.980Z,0.00
2018-12-16T06:26:02.972Z,0.00
2018-12-16T06:27:02.944Z,0.00
2018-12-16T06:28:03.002Z,0.00
2018-12-16T06:29:02.922Z,0.00
2018-12-16T06:30:02.920Z,0.00
2018-12-16T06:31:02.908Z,0.00
2018-12-16T06:32:02.898Z,0.00
2018-12-16T06:33:02.960Z,0.00
2018-12-16T06:34:02.880Z,0.00
2018-12-16T06:35:02.863Z,0.00
2018-12-16T06:36:02.863Z,0.00
2018-12-16T06:37:02.842Z,0.00
2018-12-16T06:38:02.848Z,0.00
2018-12-16T06:39:02.817Z,0.00
2018-12-16T06:40:02.814Z,0.00
2018-12-16T06:41:02.802Z,0.00
2018-12-16T06:42:02.804Z,0.00
2018-12-16T06:43:02.827Z,0.00
2018-12-16T06:44:02.766Z,0.00
2018-12-16T06:45:02.760Z,0.00
2018-12-16T06:46:02.753Z,0.00
2018-12-16T06:47:02.736Z,0.00
2018-12-16T06:48:02.744Z,0.00
2018-12-16T06:49:02.725Z,0.00
2018-12-16T06:50:02.700Z,0.00
2018-12-16T06:51:02.696Z,0.00
2018-12-16T06:52:02.700Z,0.00
2018-12-16T06:53:02.934Z,0.00
2018-12-16T06:54:02.951Z,0.00
2018-12-16T06:55:02.658Z,0.00
2018-12-16T06:56:06.623Z,0.00
2018-12-16T06:57:02.637Z,0.00
2018-12-16T06:58:02.620Z,0.00
2018-12-16T06:59:02.622Z,0.00
2018-12-16T07:00:02.617Z,0.00
2018-12-16T07:01:02.592Z,0.00
2018-12-16T07:02:02.581Z,0.00
2018-12-16T07:03:02.569Z,0.00
2018-12-16T07:04:02.582Z,0.00
2018-12-16T07:05:02.558Z,0.00
2018-12-16T07:06:02.550Z,0.00
2018-12-16T07:07:02.540Z,0.00
2018-12-16T07:08:02.514Z,0.00
2018-12-16T07:09:02.546Z,0.00
2018-12-16T07:10:02.494Z,0.00
2018-12-16T07:11:02.482Z,0.00
2018-12-16T07:12:02.499Z,0.00
2018-12-16T07:13:02.487Z,0.00
2018-12-16T07:14:02.456Z,0.00
2018-12-16T07:15:02.462Z,0.00
2018-12-16T07:16:02.430Z,0.00
2018-12-16T07:17:02.439Z,0.00
2018-12-16T07:18:02.410Z,0.00
2018-12-16T07:19:02.421Z,0.00
2018-12-16T07:20:02.413Z,0.00
2018-12-16T07:21:02.379Z,0.00
2018-12-16T07:22:02.370Z,0.00
2018-12-16T07:23:02.366Z,0.00
2018-12-16T07:24:09.015Z,0.00
2018-12-16T07:25:03.382Z,0.00
2018-12-16T07:26:02.326Z,0.00
2018-12-16T07:27:02.323Z,0.00
2018-12-16T07:28:02.315Z,0.00
2018-12-16T07:29:02.350Z,0.00
2018-12-16T07:30:02.344Z,0.00
2018-12-16T07:31:02.283Z,0.00
2018-12-16T07:32:02.298Z,5.62
2018-12-16T07:33:02.282Z,0.00
2018-12-16T07:34:02.295Z,5.62
2018-12-16T07:35:02.270Z,5.62
2018-12-16T07:36:02.232Z,5.62
2018-12-16T07:37:02.219Z,5.62
2018-12-16T07:38:02.209Z,5.62
2018-12-16T07:39:02.225Z,5.62
2018-12-16T07:40:02.192Z,5.62
2018-12-16T07:41:02.204Z,5.62
2018-12-16T07:42:02.196Z,5.62
2018-12-16T07:43:02.226Z,5.62
2018-12-16T07:44:02.230Z,5.62
2018-12-16T07:45:02.182Z,5.62
2018-12-16T07:46:04.170Z,5.62
2018-12-16T07:47:02.136Z,5.62
2018-12-16T07:48:02.175Z,5.62
2018-12-16T07:49:02.150Z,5.62
2018-12-16T07:50:02.259Z,5.62
2018-12-16T07:51:02.192Z,5.62
2018-12-16T07:52:02.200Z,11.25
2018-12-16T07:53:04.086Z,11.25
2018-12-16T07:54:02.113Z,11.25
2018-12-16T07:55:02.102Z,11.25
2018-12-16T07:56:02.130Z,16.88
2018-12-16T07:57:02.165Z,16.88
2018-12-16T07:58:02.053Z,16.88
2018-12-16T07:59:02.044Z,16.88
2018-12-16T08:00:02.124Z,16.88
2018-12-16T08:01:02.019Z,16.88
2018-12-16T08:02:02.051Z,16.88
2018-12-16T08:03:02.113Z,22.50
2018-12-16T08:04:02.012Z,22.50
2018-12-16T08:05:02.017Z,22.50
2018-12-16T08:06:01.964Z,22.50
2018-12-16T08:07:01.974Z,22.50
2018-12-16T08:08:02.012Z,22.50
2018-12-16T08:09:01.936Z,22.50
2018-12-16T08:10:02.016Z,22.50
2018-12-16T08:11:01.915Z,22.50
2018-12-16T08:12:01.904Z,22.50
2018-12-16T08:13:01.920Z,28.12
2018-12-16T08:14:03.986Z,33.75
2018-12-16T08:15:01.894Z,33.75
2018-12-16T08:16:01.874Z,33.75
2018-12-16T08:17:01.864Z,33.75
2018-12-16T08:18:01.856Z,33.75
2018-12-16T08:19:07.072Z,33.75
2018-12-16T08:20:02.932Z,33.75
2018-12-16T08:21:01.832Z,33.75
2018-12-16T08:24:03.307Z,33.75
2018-12-16T08:25:22.814Z,33.75
2018-12-16T08:26:01.757Z,33.75
2018-12-16T08:27:01.739Z,33.75
2018-12-16T08:28:01.745Z,33.75
2018-12-16T08:29:02.457Z,33.75
2018-12-16T08:30:01.735Z,33.75
2018-12-16T08:31:01.709Z,33.75
2018-12-16T08:32:01.704Z,33.75
2018-12-16T08:33:01.655Z,33.75
2018-12-16T08:34:01.628Z,28.12
2018-12-16T08:35:01.615Z,33.75
2018-12-16T08:36:01.623Z,28.12
2018-12-16T08:37:01.596Z,33.75
2018-12-16T08:38:01.593Z,39.38
2018-12-16T08:39:01.636Z,39.38
2018-12-16T08:40:01.594Z,39.38
2018-12-16T08:41:01.581Z,39.38
2018-12-16T08:42:01.550Z,39.38
2018-12-16T08:43:01.559Z,39.38
2018-12-16T08:44:01.535Z,39.38
2018-12-16T08:45:01.548Z,39.38
2018-12-16T08:46:01.540Z,45.00
2018-12-16T08:47:01.537Z,45.00
2018-12-16T08:48:01.481Z,45.00
2018-12-16T08:49:01.477Z,39.38
2018-12-16T08:50:01.473Z,39.38
2018-12-16T08:51:01.484Z,39.38
2018-12-16T08:52:01.441Z,39.38
2018-12-16T08:53:01.430Z,33.75
2018-12-16T08:54:01.426Z,39.38
2018-12-16T08:55:01.412Z,45.00
2018-12-16T08:56:01.433Z,45.00
2018-12-16T08:57:01.420Z,50.62
2018-12-16T08:58:01.385Z,45.00
2018-12-16T08:59:01.367Z,50.62
2018-12-16T09:00:01.354Z,50.62
2018-12-16T09:01:01.438Z,45.00
2018-12-16T09:02:01.345Z,45.00
2018-12-16T09:03:01.337Z,50.62
2018-12-16T09:04:01.319Z,50.62
2018-12-16T09:05:01.321Z,50.62
2018-12-16T09:06:01.319Z,50.62
2018-12-16T09:07:01.289Z,50.62
2018-12-16T09:08:01.281Z,50.62
2018-12-16T09:09:01.291Z,50.62
2018-12-16T09:10:01.267Z,50.62
2018-12-16T09:11:01.241Z,50.62
2018-12-16T09:12:01.260Z,56.25
2018-12-16T09:13:01.223Z,56.25
2018-12-16T09:14:01.224Z,56.25
2018-12-16T09:15:01.251Z,56.25
2018-12-16T09:16:01.197Z,56.25
2018-12-16T09:17:01.264Z,56.25
2018-12-16T09:18:01.187Z,56.25
2018-12-16T09:19:01.164Z,56.25
2018-12-16T09:20:01.154Z,61.88
2018-12-16T09:21:01.161Z,61.88
2018-12-16T09:22:01.175Z,61.88
2018-12-16T09:23:01.144Z,61.88
2018-12-16T09:24:01.125Z,56.25
2018-12-16T09:25:01.116Z,56.25
2018-12-16T09:26:01.106Z,56.25
2018-12-16T09:27:01.139Z,61.88
2018-12-16T09:28:01.067Z,61.88
2018-12-16T09:29:01.115Z,61.88
2018-12-16T09:30:01.043Z,61.88
2018-12-16T09:31:01.046Z,61.88
2018-12-16T09:32:02.772Z,61.88
2018-12-16T09:33:01.071Z,61.88
2018-12-16T09:34:01.006Z,56.25
2018-12-16T09:35:01.000Z,56.25
2018-12-16T09:36:00.988Z,50.62
2018-12-16T09:37:00.985Z,56.25
2018-12-16T09:38:01.002Z,56.25
2018-12-16T09:39:00.954Z,50.62
2018-12-16T09:40:02.976Z,50.62
2018-12-16T09:41:00.966Z,50.62
2018-12-16T09:42:00.930Z,45.00
2018-12-16T09:43:00.921Z,50.62
2018-12-16T09:44:00.911Z,50.62
2018-12-16T09:45:00.888Z,45.00
2018-12-16T09:46:00.867Z,50.62
2018-12-16T09:47:00.867Z,56.25
2018-12-16T09:48:00.881Z,56.25
2018-12-16T09:49:00.841Z,56.25
2018-12-16T09:50:00.822Z,56.25
2018-12-16T09:51:00.815Z,61.88
2018-12-16T09:52:00.849Z,61.88
2018-12-16T09:53:00.799Z,61.88
2018-12-16T09:54:00.892Z,61.88
2018-12-16T09:55:00.786Z,56.25
2018-12-16T09:56:00.767Z,56.25
2018-12-16T09:57:00.776Z,56.25
2018-12-16T09:58:00.827Z,50.62
2018-12-16T09:59:00.828Z,50.62
2018-12-16T10:00:00.743Z,50.62
2018-12-16T10:01:00.718Z,50.62
2018-12-16T10:02:00.737Z,45.00
2018-12-16T10:03:00.691Z,45.00
2018-12-16T10:04:00.684Z,45.00
2018-12-16T10:05:00.722Z,50.62
2018-12-16T10:06:00.686Z,56.25
2018-12-16T10:07:00.683Z,50.62
2018-12-16T10:08:00.653Z,50.62
2018-12-16T10:09:00.646Z,50.62
2018-12-16T10:10:00.655Z,50.62
2018-12-16T10:11:00.628Z,45.00
2018-12-16T10:12:00.612Z,50.62
2018-12-16T10:13:00.616Z,50.62
2018-12-16T10:14:00.588Z,56.25
2018-12-16T10:15:00.625Z,56.25
2018-12-16T10:16:00.560Z,50.62
2018-12-16T10:17:00.560Z,50.62
2018-12-16T10:18:00.557Z,56.25
2018-12-16T10:19:00.521Z,61.88
2018-12-16T10:20:00.516Z,61.88
2018-12-16T10:21:00.536Z,61.88
2018-12-16T10:22:00.510Z,61.88
2018-12-16T10:23:00.506Z,61.88
2018-12-16T10:24:00.493Z,61.88
2018-12-16T10:25:00.467Z,67.50
2018-12-16T10:26:00.493Z,67.50
2018-12-16T10:27:00.533Z,67.50
2018-12-16T10:28:00.533Z,67.50
2018-12-16T10:29:00.431Z,67.50
2018-12-16T10:30:00.415Z,67.50
2018-12-16T10:31:00.395Z,67.50
2018-12-16T10:32:00.440Z,61.88
2018-12-16T10:33:00.379Z,61.88
2018-12-16T10:34:00.377Z,61.88
2018-12-16T10:35:00.358Z,61.88
2018-12-16T10:36:00.363Z,61.88
2018-12-16T10:37:00.374Z,67.50
2018-12-16T10:38:00.382Z,61.88
2018-12-16T10:39:01.831Z,61.88
2018-12-16T10:40:00.335Z,61.88
2018-12-16T10:41:00.328Z,56.25
2018-12-16T10:42:00.338Z,50.62
2018-12-16T10:43:00.306Z,50.62
2018-12-16T10:44:00.320Z,50.62
2018-12-16T10:45:00.284Z,45.00
2018-12-16T10:46:00.244Z,50.62
2018-12-16T10:47:00.242Z,50.62
2018-12-16T10:49:04.671Z,45.00
2018-12-16T10:50:00.215Z,50.62
2018-12-16T10:51:00.218Z,50.62
2018-12-16T10:52:00.185Z,50.62
2018-12-16T10:54:01.347Z,50.62
2018-12-16T10:55:00.375Z,45.00
2018-12-16T10:56:00.330Z,45.00
2018-12-16T10:57:00.389Z,45.00
2018-12-16T10:58:00.344Z,45.00
2018-12-16T10:59:00.357Z,45.00
2018-12-16T11:00:00.216Z,45.00
2018-12-16T11:01:00.110Z,45.00
2018-12-16T11:02:00.114Z,50.62
2018-12-16T11:03:00.118Z,50.62
2018-12-16T11:05:01.719Z,56.25
2018-12-16T11:06:00.066Z,56.25
2018-12-16T11:07:00.114Z,61.88
2018-12-16T11:08:00.030Z,61.88
2018-12-16T11:09:02.168Z,61.88
2018-12-16T11:10:00.045Z,61.88
2018-12-16T11:11:00.040Z,61.88
2018-12-16T11:12:00.049Z,61.88
2018-12-16T11:13:00.101Z,61.88
2018-12-16T11:15:03.025Z,61.88
2018-12-16T11:16:00.036Z,61.88
2018-12-16T11:18:01.824Z,67.50
2018-12-16T11:18:59.920Z,61.88
2018-12-16T11:19:59.945Z,61.88
2018-12-16T11:20:59.880Z,61.88
2018-12-16T11:22:00.143Z,67.50
2018-12-16T11:22:59.871Z,67.50
2018-12-16T11:23:59.878Z,67.50
2018-12-16T11:25:05.654Z,67.50
2018-12-16T11:26:00.862Z,67.50
2018-12-16T11:26:59.918Z,67.50
2018-12-16T11:27:59.828Z,73.12
2018-12-16T11:28:59.839Z,78.75
2018-12-16T11:29:59.836Z,73.12
2018-12-16T11:30:59.834Z,78.75
2018-12-16T11:31:59.771Z,84.38
2018-12-16T11:32:59.790Z,84.38
2018-12-16T11:33:59.853Z,84.38
2018-12-16T11:34:59.759Z,78.75
2018-12-16T11:35:59.753Z,78.75
2018-12-16T11:38:00.937Z,73.12
2018-12-16T11:38:59.999Z,78.75
2018-12-16T11:39:59.768Z,78.75
2018-12-16T11:43:04.790Z,90.00
2018-12-16T11:47:05.598Z,95.62
2018-12-16T11:47:59.623Z,90.00
2018-12-16T11:48:59.630Z,95.62
2018-12-16T11:49:59.646Z,95.62
2018-12-16T11:50:59.565Z,95.62
2018-12-16T11:51:59.659Z,101.25
2018-12-16T11:52:59.564Z,106.88
2018-12-16T11:53:59.586Z,118.12
2018-12-16T11:54:59.560Z,106.88
2018-12-16T11:55:59.522Z,101.25
2018-12-16T11:56:59.515Z,106.88
2018-12-16T11:57:59.513Z,106.88
2018-12-16T11:58:59.489Z,101.25
2018-12-16T11:59:59.499Z,106.88
2018-12-16T12:00:59.517Z,106.88
2018-12-16T12:01:59.569Z,106.88
2018-12-16T12:02:59.501Z,101.25
2018-12-16T12:03:59.429Z,95.62
2018-12-16T12:04:59.435Z,90.00
2018-12-16T12:05:59.422Z,90.00
2018-12-16T12:06:59.435Z,95.62
2018-12-16T12:07:59.409Z,101.25
2018-12-16T12:08:59.418Z,106.88
2018-12-16T12:09:59.366Z,118.12
2018-12-16T12:10:59.401Z,123.75
2018-12-16T12:11:59.426Z,123.75
2018-12-16T12:12:59.437Z,123.75
2018-12-16T12:13:59.386Z,129.38
2018-12-16T12:14:59.332Z,140.62
2018-12-16T12:15:59.353Z,151.88
2018-12-16T12:16:59.329Z,151.88
2018-12-16T12:17:59.321Z,140.62
2018-12-16T12:18:59.315Z,140.62
2018-12-16T12:19:59.308Z,140.62
2018-12-16T12:20:59.289Z,129.38
2018-12-16T12:22:04.356Z,129.38
2018-12-16T12:23:00.248Z,123.75
2018-12-16T12:23:59.288Z,123.75
2018-12-16T12:24:59.201Z,123.75
2018-12-16T12:25:59.216Z,118.12
2018-12-16T12:26:59.238Z,106.88
2018-12-16T12:27:59.275Z,95.62
2018-12-16T12:28:59.235Z,95.62
2018-12-16T12:29:59.196Z,95.62
2018-12-16T12:30:59.240Z,90.00
2018-12-16T12:31:59.210Z,90.00
2018-12-16T12:33:01.270Z,84.38
2018-12-16T12:33:59.326Z,84.38
2018-12-16T12:34:59.182Z,78.75
2018-12-16T12:35:59.174Z,78.75
2018-12-16T12:36:59.130Z,73.12
2018-12-16T12:37:59.116Z,67.50
2018-12-16T12:38:59.113Z,67.50
2018-12-16T12:39:59.147Z,61.88
2018-12-16T12:40:59.098Z,61.88
2018-12-16T12:41:59.092Z,61.88
2018-12-16T12:42:59.238Z,61.88
2018-12-16T12:43:59.171Z,61.88
2018-12-16T12:44:59.050Z,61.88
2018-12-16T12:45:59.038Z,67.50
2018-12-16T12:46:59.020Z,67.50
2018-12-16T12:47:59.022Z,67.50
2018-12-16T12:48:58.967Z,73.12
2018-12-16T12:49:58.991Z,73.12
2018-12-16T12:50:58.993Z,67.50
2018-12-16T12:51:58.940Z,67.50
2018-12-16T12:52:58.906Z,67.50
2018-12-16T12:53:58.928Z,67.50
2018-12-16T12:54:59.148Z,73.12
2018-12-16T12:55:58.993Z,78.75
2018-12-16T12:56:58.968Z,78.75
2018-12-16T12:57:58.942Z,78.75
2018-12-16T12:58:58.952Z,78.75
2018-12-16T12:59:59.068Z,73.12
2018-12-16T13:00:58.887Z,73.12
2018-12-16T13:01:58.904Z,73.12
2018-12-16T13:02:58.894Z,73.12
2018-12-16T13:04:00.898Z,67.50
2018-12-16T13:04:58.934Z,67.50
2018-12-16T13:05:58.866Z,67.50
2018-12-16T13:06:58.885Z,67.50
2018-12-16T13:07:58.847Z,67.50
2018-12-16T13:08:58.890Z,61.88
2018-12-16T13:10:01.494Z,61.88
2018-12-16T13:10:58.806Z,61.88
2018-12-16T13:11:58.789Z,61.88
2018-12-16T13:12:58.756Z,61.88
2018-12-16T13:13:58.748Z,56.25
2018-12-16T13:14:58.755Z,56.25
2018-12-16T13:15:58.886Z,61.88
2018-12-16T13:16:58.749Z,67.50
2018-12-16T13:17:58.680Z,67.50
2018-12-16T13:18:58.685Z,67.50